sensor_id;sensor_type;location;lat;lon;timestamp;P1;durP1;ratioP1;P2;durP2;ratioP2
12597;SDS011;6364;53.590;9.956;2023-07-13T00:00:35;9.48;;;5.57;;
12597;SDS011;6364;53.590;9.956;2023-07-13T00:03:01;17.13;;;6.25;;
12597;SDS011;6364;53.590;9.956;2023-07-13T00:05:27;11.60;;;6.43;;
12597;SDS011;6364;53.590;9.956;2023-07-13T00:07:52;10.18;;;5.88;;
12597;SDS011;6364;53.590;9.956;2023-07-13T00:10:19;10.88;;;6.65;;
12597;SDS011;6364;53.590;9.956;2023-07-13T00:12:44;13.18;;;7.43;;
12597;SDS011;6364;53.590;9.956;2023-07-13T00:15:18;15.90;;;7.20;;
12597;SDS011;6364;53.590;9.956;2023-07-13T00:17:51;17.83;;;7.90;;
12597;SDS011;6364;53.590;9.956;2023-07-13T00:20:18;20.00;;;7.80;;
12597;SDS011;6364;53.590;9.956;2023-07-13T00:22:46;17.42;;;7.60;;
12597;SDS011;6364;53.590;9.956;2023-07-13T00:25:12;13.43;;;7.97;;
12597;SDS011;6364;53.590;9.956;2023-07-13T00:27:38;15.77;;;8.02;;
12597;SDS011;6364;53.590;9.956;2023-07-13T00:30:03;12.70;;;7.50;;
12597;SDS011;6364;53.590;9.956;2023-07-13T00:32:30;18.25;;;7.88;;
12597;SDS011;6364;53.590;9.956;2023-07-13T00:34:56;16.73;;;8.63;;
12597;SDS011;6364;53.590;9.956;2023-07-13T00:37:25;18.63;;;8.57;;
12597;SDS011;6364;53.590;9.956;2023-07-13T00:39:50;19.40;;;8.00;;
12597;SDS011;6364;53.590;9.956;2023-07-13T00:42:16;17.08;;;7.53;;
12597;SDS011;6364;53.590;9.956;2023-07-13T00:44:41;15.10;;;8.30;;
12597;SDS011;6364;53.590;9.956;2023-07-13T00:47:06;13.43;;;8.00;;
12597;SDS011;6364;53.590;9.956;2023-07-13T00:49:32;27.88;;;8.65;;
12597;SDS011;6364;53.590;9.956;2023-07-13T00:52:03;19.35;;;8.63;;
12597;SDS011;6364;53.590;9.956;2023-07-13T00:54:32;18.27;;;8.60;;
12597;SDS011;6364;53.590;9.956;2023-07-13T00:57:00;15.10;;;8.02;;
12597;SDS011;6364;53.590;9.956;2023-07-13T00:59:28;15.85;;;8.07;;
12597;SDS011;6364;53.590;9.956;2023-07-13T01:01:54;11.65;;;8.07;;
12597;SDS011;6364;53.590;9.956;2023-07-13T01:04:19;14.00;;;8.60;;
12597;SDS011;6364;53.590;9.956;2023-07-13T01:06:45;17.60;;;9.02;;
12597;SDS011;6364;53.590;9.956;2023-07-13T01:09:12;15.48;;;9.68;;
12597;SDS011;6364;53.590;9.956;2023-07-13T01:11:38;21.90;;;9.35;;
12597;SDS011;6364;53.590;9.956;2023-07-13T01:14:03;17.45;;;9.57;;
12597;SDS011;6364;53.590;9.956;2023-07-13T01:16:32;15.23;;;10.13;;
12597;SDS011;6364;53.590;9.956;2023-07-13T01:18:59;19.80;;;10.13;;
12597;SDS011;6364;53.590;9.956;2023-07-13T01:21:26;16.65;;;9.88;;
12597;SDS011;6364;53.590;9.956;2023-07-13T01:23:52;19.65;;;10.93;;
12597;SDS011;6364;53.590;9.956;2023-07-13T01:26:17;18.40;;;10.88;;
12597;SDS011;6364;53.590;9.956;2023-07-13T01:28:43;18.60;;;11.48;;
12597;SDS011;6364;53.590;9.956;2023-07-13T01:31:08;20.65;;;11.65;;
12597;SDS011;6364;53.590;9.956;2023-07-13T01:33:34;19.77;;;11.18;;
12597;SDS011;6364;53.590;9.956;2023-07-13T01:36:01;20.65;;;11.27;;
12597;SDS011;6364;53.590;9.956;2023-07-13T01:38:27;24.27;;;11.88;;
12597;SDS011;6364;53.590;9.956;2023-07-13T01:40:52;22.27;;;11.40;;
12597;SDS011;6364;53.590;9.956;2023-07-13T01:43:18;19.20;;;11.07;;
12597;SDS011;6364;53.590;9.956;2023-07-13T01:45:44;16.80;;;11.93;;
12597;SDS011;6364;53.590;9.956;2023-07-13T01:48:09;20.88;;;12.30;;
12597;SDS011;6364;53.590;9.956;2023-07-13T01:50:35;18.65;;;11.60;;
12597;SDS011;6364;53.590;9.956;2023-07-13T01:53:01;20.45;;;11.77;;
12597;SDS011;6364;53.590;9.956;2023-07-13T01:55:27;19.27;;;12.18;;
12597;SDS011;6364;53.590;9.956;2023-07-13T01:57:52;21.15;;;11.93;;
12597;SDS011;6364;53.590;9.956;2023-07-13T02:00:18;15.55;;;10.88;;
12597;SDS011;6364;53.590;9.956;2023-07-13T02:02:43;19.88;;;11.65;;
12597;SDS011;6364;53.590;9.956;2023-07-13T02:05:09;20.63;;;11.55;;
12597;SDS011;6364;53.590;9.956;2023-07-13T02:07:34;21.95;;;11.63;;
12597;SDS011;6364;53.590;9.956;2023-07-13T02:09:59;21.10;;;12.23;;
12597;SDS011;6364;53.590;9.956;2023-07-13T02:12:25;17.65;;;11.07;;
12597;SDS011;6364;53.590;9.956;2023-07-13T02:14:50;16.35;;;11.07;;
12597;SDS011;6364;53.590;9.956;2023-07-13T02:17:15;21.45;;;12.15;;
12597;SDS011;6364;53.590;9.956;2023-07-13T02:19:41;18.92;;;11.45;;
12597;SDS011;6364;53.590;9.956;2023-07-13T02:22:06;19.85;;;11.13;;
12597;SDS011;6364;53.590;9.956;2023-07-13T02:24:32;20.23;;;11.02;;
12597;SDS011;6364;53.590;9.956;2023-07-13T02:26:57;15.13;;;11.00;;
12597;SDS011;6364;53.590;9.956;2023-07-13T02:29:22;17.10;;;10.82;;
12597;SDS011;6364;53.590;9.956;2023-07-13T02:31:48;15.65;;;10.88;;
12597;SDS011;6364;53.590;9.956;2023-07-13T02:34:13;20.40;;;10.75;;
12597;SDS011;6364;53.590;9.956;2023-07-13T02:36:38;16.88;;;10.85;;
12597;SDS011;6364;53.590;9.956;2023-07-13T02:39:04;19.33;;;10.30;;
12597;SDS011;6364;53.590;9.956;2023-07-13T02:41:30;15.43;;;10.93;;
12597;SDS011;6364;53.590;9.956;2023-07-13T02:43:57;18.33;;;10.07;;
12597;SDS011;6364;53.590;9.956;2023-07-13T02:46:28;23.70;;;10.57;;
12597;SDS011;6364;53.590;9.956;2023-07-13T02:48:54;15.20;;;9.70;;
12597;SDS011;6364;53.590;9.956;2023-07-13T02:51:19;16.48;;;10.18;;
12597;SDS011;6364;53.590;9.956;2023-07-13T02:53:44;18.73;;;10.15;;
12597;SDS011;6364;53.590;9.956;2023-07-13T02:56:09;16.73;;;10.02;;
12597;SDS011;6364;53.590;9.956;2023-07-13T02:58:35;16.60;;;10.23;;
12597;SDS011;6364;53.590;9.956;2023-07-13T03:01:05;14.02;;;10.07;;
12597;SDS011;6364;53.590;9.956;2023-07-13T03:03:31;15.27;;;9.35;;
12597;SDS011;6364;53.590;9.956;2023-07-13T03:06:01;19.38;;;9.85;;
12597;SDS011;6364;53.590;9.956;2023-07-13T03:08:28;12.38;;;8.40;;
12597;SDS011;6364;53.590;9.956;2023-07-13T03:11:00;15.27;;;9.30;;
12597;SDS011;6364;53.590;9.956;2023-07-13T03:13:33;13.50;;;9.27;;
12597;SDS011;6364;53.590;9.956;2023-07-13T03:15:58;17.90;;;8.60;;
12597;SDS011;6364;53.590;9.956;2023-07-13T03:18:25;14.30;;;8.70;;
12597;SDS011;6364;53.590;9.956;2023-07-13T03:20:51;18.67;;;9.43;;
12597;SDS011;6364;53.590;9.956;2023-07-13T03:23:17;15.35;;;8.82;;
12597;SDS011;6364;53.590;9.956;2023-07-13T03:25:43;13.43;;;8.68;;
12597;SDS011;6364;53.590;9.956;2023-07-13T03:28:10;17.67;;;8.40;;
12597;SDS011;6364;53.590;9.956;2023-07-13T03:30:35;13.25;;;8.27;;
12597;SDS011;6364;53.590;9.956;2023-07-13T03:33:01;13.50;;;8.63;;
12597;SDS011;6364;53.590;9.956;2023-07-13T03:35:26;14.20;;;8.20;;
12597;SDS011;6364;53.590;9.956;2023-07-13T03:37:52;11.43;;;8.20;;
12597;SDS011;6364;53.590;9.956;2023-07-13T03:40:17;13.95;;;7.40;;
12597;SDS011;6364;53.590;9.956;2023-07-13T03:42:42;11.38;;;6.93;;
12597;SDS011;6364;53.590;9.956;2023-07-13T03:45:08;15.75;;;7.55;;
12597;SDS011;6364;53.590;9.956;2023-07-13T03:47:33;10.85;;;7.35;;
12597;SDS011;6364;53.590;9.956;2023-07-13T03:49:58;11.20;;;7.82;;
12597;SDS011;6364;53.590;9.956;2023-07-13T03:52:24;12.23;;;7.45;;
12597;SDS011;6364;53.590;9.956;2023-07-13T03:54:49;13.82;;;8.48;;
12597;SDS011;6364;53.590;9.956;2023-07-13T03:57:14;11.45;;;7.45;;
12597;SDS011;6364;53.590;9.956;2023-07-13T03:59:40;11.80;;;7.07;;
12597;SDS011;6364;53.590;9.956;2023-07-13T04:02:05;13.20;;;6.93;;
12597;SDS011;6364;53.590;9.956;2023-07-13T04:04:30;11.77;;;7.00;;
12597;SDS011;6364;53.590;9.956;2023-07-13T04:06:57;11.15;;;6.50;;
12597;SDS011;6364;53.590;9.956;2023-07-13T04:09:23;15.25;;;6.65;;
12597;SDS011;6364;53.590;9.956;2023-07-13T04:11:49;14.05;;;5.80;;
12597;SDS011;6364;53.590;9.956;2023-07-13T04:14:14;11.02;;;5.82;;
12597;SDS011;6364;53.590;9.956;2023-07-13T04:16:39;12.98;;;6.07;;
12597;SDS011;6364;53.590;9.956;2023-07-13T04:19:05;11.60;;;5.90;;
12597;SDS011;6364;53.590;9.956;2023-07-13T04:21:30;12.60;;;6.05;;
12597;SDS011;6364;53.590;9.956;2023-07-13T04:23:56;14.23;;;6.15;;
12597;SDS011;6364;53.590;9.956;2023-07-13T04:26:22;11.63;;;5.90;;
12597;SDS011;6364;53.590;9.956;2023-07-13T04:28:49;10.57;;;5.78;;
12597;SDS011;6364;53.590;9.956;2023-07-13T04:31:15;14.25;;;5.88;;
12597;SDS011;6364;53.590;9.956;2023-07-13T04:33:40;12.48;;;5.93;;
12597;SDS011;6364;53.590;9.956;2023-07-13T04:36:06;14.00;;;6.18;;
12597;SDS011;6364;53.590;9.956;2023-07-13T04:38:32;13.98;;;5.70;;
12597;SDS011;6364;53.590;9.956;2023-07-13T04:40:59;13.27;;;5.90;;
12597;SDS011;6364;53.590;9.956;2023-07-13T04:43:26;15.38;;;5.97;;
12597;SDS011;6364;53.590;9.956;2023-07-13T04:45:52;17.65;;;6.40;;
12597;SDS011;6364;53.590;9.956;2023-07-13T04:48:18;13.00;;;6.25;;
12597;SDS011;6364;53.590;9.956;2023-07-13T04:50:45;12.77;;;5.53;;
12597;SDS011;6364;53.590;9.956;2023-07-13T04:53:11;12.05;;;5.60;;
12597;SDS011;6364;53.590;9.956;2023-07-13T04:55:36;13.38;;;5.88;;
12597;SDS011;6364;53.590;9.956;2023-07-13T04:58:02;16.55;;;5.97;;
12597;SDS011;6364;53.590;9.956;2023-07-13T05:00:27;12.50;;;6.15;;
12597;SDS011;6364;53.590;9.956;2023-07-13T05:02:54;11.70;;;6.07;;
12597;SDS011;6364;53.590;9.956;2023-07-13T05:05:20;11.32;;;5.72;;
12597;SDS011;6364;53.590;9.956;2023-07-13T05:07:46;11.45;;;6.00;;
12597;SDS011;6364;53.590;9.956;2023-07-13T05:10:11;13.68;;;6.25;;
12597;SDS011;6364;53.590;9.956;2023-07-13T05:12:36;17.73;;;6.55;;
12597;SDS011;6364;53.590;9.956;2023-07-13T05:15:02;10.77;;;6.40;;
12597;SDS011;6364;53.590;9.956;2023-07-13T05:17:28;14.88;;;6.43;;
12597;SDS011;6364;53.590;9.956;2023-07-13T05:19:53;15.55;;;6.40;;
12597;SDS011;6364;53.590;9.956;2023-07-13T05:22:18;11.00;;;6.70;;
12597;SDS011;6364;53.590;9.956;2023-07-13T05:24:44;13.35;;;6.40;;
12597;SDS011;6364;53.590;9.956;2023-07-13T05:27:09;13.50;;;6.57;;
12597;SDS011;6364;53.590;9.956;2023-07-13T05:29:34;14.82;;;6.40;;
12597;SDS011;6364;53.590;9.956;2023-07-13T05:31:59;20.58;;;6.97;;
12597;SDS011;6364;53.590;9.956;2023-07-13T05:34:25;16.52;;;6.43;;
12597;SDS011;6364;53.590;9.956;2023-07-13T05:36:51;18.30;;;7.45;;
12597;SDS011;6364;53.590;9.956;2023-07-13T05:39:17;17.08;;;6.82;;
12597;SDS011;6364;53.590;9.956;2023-07-13T05:41:42;18.98;;;6.38;;
12597;SDS011;6364;53.590;9.956;2023-07-13T05:44:08;15.40;;;6.78;;
12597;SDS011;6364;53.590;9.956;2023-07-13T05:46:33;15.15;;;6.65;;
12597;SDS011;6364;53.590;9.956;2023-07-13T05:48:59;15.73;;;6.63;;
12597;SDS011;6364;53.590;9.956;2023-07-13T05:51:24;16.77;;;6.53;;
12597;SDS011;6364;53.590;9.956;2023-07-13T05:53:49;20.77;;;6.80;;
12597;SDS011;6364;53.590;9.956;2023-07-13T05:56:15;13.65;;;6.72;;
12597;SDS011;6364;53.590;9.956;2023-07-13T05:58:40;18.48;;;6.75;;
12597;SDS011;6364;53.590;9.956;2023-07-13T06:01:08;14.02;;;6.57;;
12597;SDS011;6364;53.590;9.956;2023-07-13T06:03:35;16.77;;;6.72;;
12597;SDS011;6364;53.590;9.956;2023-07-13T06:06:03;19.55;;;6.43;;
12597;SDS011;6364;53.590;9.956;2023-07-13T06:08:29;22.23;;;7.60;;
12597;SDS011;6364;53.590;9.956;2023-07-13T06:10:54;15.00;;;6.50;;
12597;SDS011;6364;53.590;9.956;2023-07-13T06:13:19;15.82;;;6.50;;
12597;SDS011;6364;53.590;9.956;2023-07-13T06:15:51;9.82;;;6.35;;
12597;SDS011;6364;53.590;9.956;2023-07-13T06:18:16;20.48;;;6.40;;
12597;SDS011;6364;53.590;9.956;2023-07-13T06:20:42;13.38;;;6.30;;
12597;SDS011;6364;53.590;9.956;2023-07-13T06:23:07;16.08;;;6.38;;
12597;SDS011;6364;53.590;9.956;2023-07-13T06:25:32;13.05;;;6.40;;
12597;SDS011;6364;53.590;9.956;2023-07-13T06:27:58;14.65;;;6.13;;
12597;SDS011;6364;53.590;9.956;2023-07-13T06:30:23;18.90;;;6.13;;
12597;SDS011;6364;53.590;9.956;2023-07-13T06:32:48;19.92;;;6.53;;
12597;SDS011;6364;53.590;9.956;2023-07-13T06:35:14;17.52;;;6.57;;
12597;SDS011;6364;53.590;9.956;2023-07-13T06:37:39;18.77;;;6.38;;
12597;SDS011;6364;53.590;9.956;2023-07-13T06:40:05;17.92;;;5.90;;
12597;SDS011;6364;53.590;9.956;2023-07-13T06:42:31;20.58;;;5.65;;
12597;SDS011;6364;53.590;9.956;2023-07-13T06:44:56;12.30;;;5.40;;
12597;SDS011;6364;53.590;9.956;2023-07-13T06:47:21;20.63;;;6.15;;
12597;SDS011;6364;53.590;9.956;2023-07-13T06:49:47;18.17;;;6.00;;
12597;SDS011;6364;53.590;9.956;2023-07-13T06:52:12;17.00;;;5.88;;
12597;SDS011;6364;53.590;9.956;2023-07-13T06:54:37;17.92;;;5.55;;
12597;SDS011;6364;53.590;9.956;2023-07-13T06:57:03;16.05;;;5.60;;
12597;SDS011;6364;53.590;9.956;2023-07-13T06:59:28;14.38;;;5.53;;
12597;SDS011;6364;53.590;9.956;2023-07-13T07:01:54;16.80;;;5.00;;
12597;SDS011;6364;53.590;9.956;2023-07-13T07:04:19;16.95;;;5.75;;
12597;SDS011;6364;53.590;9.956;2023-07-13T07:06:44;18.88;;;5.70;;
12597;SDS011;6364;53.590;9.956;2023-07-13T07:09:10;15.45;;;5.03;;
12597;SDS011;6364;53.590;9.956;2023-07-13T07:11:36;11.90;;;5.05;;
12597;SDS011;6364;53.590;9.956;2023-07-13T07:14:01;17.13;;;4.97;;
12597;SDS011;6364;53.590;9.956;2023-07-13T07:16:26;12.50;;;4.32;;
12597;SDS011;6364;53.590;9.956;2023-07-13T07:18:52;17.90;;;4.93;;
12597;SDS011;6364;53.590;9.956;2023-07-13T07:21:17;13.10;;;4.30;;
12597;SDS011;6364;53.590;9.956;2023-07-13T07:23:42;14.70;;;4.13;;
12597;SDS011;6364;53.590;9.956;2023-07-13T07:26:08;12.43;;;4.40;;
12597;SDS011;6364;53.590;9.956;2023-07-13T07:28:35;15.20;;;4.50;;
12597;SDS011;6364;53.590;9.956;2023-07-13T07:31:00;12.20;;;4.22;;
12597;SDS011;6364;53.590;9.956;2023-07-13T07:33:25;13.00;;;4.53;;
12597;SDS011;6364;53.590;9.956;2023-07-13T07:35:51;13.57;;;4.07;;
12597;SDS011;6364;53.590;9.956;2023-07-13T07:38:17;16.73;;;4.20;;
12597;SDS011;6364;53.590;9.956;2023-07-13T07:40:42;14.05;;;4.00;;
12597;SDS011;6364;53.590;9.956;2023-07-13T07:43:09;11.65;;;4.10;;
12597;SDS011;6364;53.590;9.956;2023-07-13T07:45:35;20.15;;;4.47;;
12597;SDS011;6364;53.590;9.956;2023-07-13T07:48:00;17.50;;;4.43;;
12597;SDS011;6364;53.590;9.956;2023-07-13T07:50:26;19.45;;;4.13;;
12597;SDS011;6364;53.590;9.956;2023-07-13T07:52:52;13.73;;;4.32;;
12597;SDS011;6364;53.590;9.956;2023-07-13T07:55:18;13.55;;;4.15;;
12597;SDS011;6364;53.590;9.956;2023-07-13T07:57:43;13.60;;;4.00;;
12597;SDS011;6364;53.590;9.956;2023-07-13T08:00:09;19.45;;;3.92;;
12597;SDS011;6364;53.590;9.956;2023-07-13T08:02:35;13.77;;;4.05;;
12597;SDS011;6364;53.590;9.956;2023-07-13T08:05:00;11.23;;;3.47;;
12597;SDS011;6364;53.590;9.956;2023-07-13T08:07:25;22.52;;;4.35;;
12597;SDS011;6364;53.590;9.956;2023-07-13T08:09:54;15.13;;;3.72;;
12597;SDS011;6364;53.590;9.956;2023-07-13T08:12:19;9.82;;;3.90;;
12597;SDS011;6364;53.590;9.956;2023-07-13T08:14:45;15.48;;;3.83;;
12597;SDS011;6364;53.590;9.956;2023-07-13T08:17:15;14.02;;;3.85;;
12597;SDS011;6364;53.590;9.956;2023-07-13T08:19:40;11.65;;;3.58;;
12597;SDS011;6364;53.590;9.956;2023-07-13T08:22:06;12.52;;;3.75;;
12597;SDS011;6364;53.590;9.956;2023-07-13T08:24:31;9.20;;;3.53;;
12597;SDS011;6364;53.590;9.956;2023-07-13T08:26:56;12.30;;;3.03;;
12597;SDS011;6364;53.590;9.956;2023-07-13T08:29:21;14.90;;;3.88;;
12597;SDS011;6364;53.590;9.956;2023-07-13T08:31:48;10.40;;;2.80;;
12597;SDS011;6364;53.590;9.956;2023-07-13T08:34:13;10.98;;;2.45;;
12597;SDS011;6364;53.590;9.956;2023-07-13T08:36:39;12.27;;;3.05;;
12597;SDS011;6364;53.590;9.956;2023-07-13T08:39:05;15.63;;;3.10;;
12597;SDS011;6364;53.590;9.956;2023-07-13T08:41:31;10.57;;;3.65;;
12597;SDS011;6364;53.590;9.956;2023-07-13T08:43:58;13.18;;;3.50;;
12597;SDS011;6364;53.590;9.956;2023-07-13T08:46:26;12.15;;;3.05;;
12597;SDS011;6364;53.590;9.956;2023-07-13T08:48:57;12.75;;;3.25;;
12597;SDS011;6364;53.590;9.956;2023-07-13T08:54:12;8.88;;;2.80;;
12597;SDS011;6364;53.590;9.956;2023-07-13T08:56:43;10.32;;;3.00;;
12597;SDS011;6364;53.590;9.956;2023-07-13T08:59:12;13.35;;;3.20;;
12597;SDS011;6364;53.590;9.956;2023-07-13T09:01:47;10.85;;;3.33;;
12597;SDS011;6364;53.590;9.956;2023-07-13T09:04:25;14.00;;;3.22;;
12597;SDS011;6364;53.590;9.956;2023-07-13T09:12:15;9.32;;;3.00;;
12597;SDS011;6364;53.590;9.956;2023-07-13T09:14:42;9.32;;;2.40;;
12597;SDS011;6364;53.590;9.956;2023-07-13T09:17:15;6.70;;;2.78;;
12597;SDS011;6364;53.590;9.956;2023-07-13T09:19:43;11.88;;;3.03;;
12597;SDS011;6364;53.590;9.956;2023-07-13T09:22:18;9.13;;;3.20;;
12597;SDS011;6364;53.590;9.956;2023-07-13T09:24:52;5.53;;;2.70;;
12597;SDS011;6364;53.590;9.956;2023-07-13T09:27:32;8.93;;;3.03;;
12597;SDS011;6364;53.590;9.956;2023-07-13T09:32:39;6.57;;;2.83;;
12597;SDS011;6364;53.590;9.956;2023-07-13T09:35:15;11.43;;;3.20;;
12597;SDS011;6364;53.590;9.956;2023-07-13T09:37:43;6.43;;;3.10;;
12597;SDS011;6364;53.590;9.956;2023-07-13T09:40:34;8.10;;;2.90;;
12597;SDS011;6364;53.590;9.956;2023-07-13T09:43:00;5.78;;;2.80;;
12597;SDS011;6364;53.590;9.956;2023-07-13T09:45:29;8.27;;;3.25;;
12597;SDS011;6364;53.590;9.956;2023-07-13T09:48:15;10.30;;;3.40;;
12597;SDS011;6364;53.590;9.956;2023-07-13T09:50:41;9.70;;;3.05;;
12597;SDS011;6364;53.590;9.956;2023-07-13T09:53:15;8.38;;;2.92;;
12597;SDS011;6364;53.590;9.956;2023-07-13T09:55:42;8.93;;;3.15;;
12597;SDS011;6364;53.590;9.956;2023-07-13T10:00:39;9.82;;;3.22;;
12597;SDS011;6364;53.590;9.956;2023-07-13T10:03:09;7.13;;;2.80;;
12597;SDS011;6364;53.590;9.956;2023-07-13T10:05:42;6.78;;;2.63;;
12597;SDS011;6364;53.590;9.956;2023-07-13T10:11:11;10.07;;;2.80;;
12597;SDS011;6364;53.590;9.956;2023-07-13T10:13:40;9.23;;;3.08;;
12597;SDS011;6364;53.590;9.956;2023-07-13T10:16:08;7.68;;;2.92;;
12597;SDS011;6364;53.590;9.956;2023-07-13T10:18:39;8.45;;;2.70;;
12597;SDS011;6364;53.590;9.956;2023-07-13T10:21:21;8.88;;;3.00;;
12597;SDS011;6364;53.590;9.956;2023-07-13T10:23:51;7.93;;;2.88;;
12597;SDS011;6364;53.590;9.956;2023-07-13T10:26:26;7.53;;;2.70;;
12597;SDS011;6364;53.590;9.956;2023-07-13T10:28:56;5.47;;;2.88;;
12597;SDS011;6364;53.590;9.956;2023-07-13T10:31:22;5.40;;;2.40;;
12597;SDS011;6364;53.590;9.956;2023-07-13T10:33:48;5.63;;;2.55;;
12597;SDS011;6364;53.590;9.956;2023-07-13T10:36:20;14.10;;;2.88;;
12597;SDS011;6364;53.590;9.956;2023-07-13T10:38:52;5.68;;;2.28;;
12597;SDS011;6364;53.590;9.956;2023-07-13T10:41:19;6.35;;;2.60;;
12597;SDS011;6364;53.590;9.956;2023-07-13T10:43:47;5.95;;;2.50;;
12597;SDS011;6364;53.590;9.956;2023-07-13T10:46:16;8.32;;;2.40;;
12597;SDS011;6364;53.590;9.956;2023-07-13T10:48:45;6.28;;;2.70;;
12597;SDS011;6364;53.590;9.956;2023-07-13T10:51:13;6.75;;;2.78;;
12597;SDS011;6364;53.590;9.956;2023-07-13T10:53:39;4.30;;;1.85;;
12597;SDS011;6364;53.590;9.956;2023-07-13T10:56:06;6.57;;;2.28;;
12597;SDS011;6364;53.590;9.956;2023-07-13T10:59:01;4.80;;;1.90;;
12597;SDS011;6364;53.590;9.956;2023-07-13T11:01:39;8.13;;;2.45;;
12597;SDS011;6364;53.590;9.956;2023-07-13T11:04:08;5.85;;;2.30;;
12597;SDS011;6364;53.590;9.956;2023-07-13T11:06:37;4.55;;;1.98;;
12597;SDS011;6364;53.590;9.956;2023-07-13T11:12:02;7.10;;;2.08;;
12597;SDS011;6364;53.590;9.956;2023-07-13T11:15:04;6.50;;;2.20;;
12597;SDS011;6364;53.590;9.956;2023-07-13T11:22:42;8.30;;;2.15;;
12597;SDS011;6364;53.590;9.956;2023-07-13T11:25:25;3.60;;;2.15;;
12597;SDS011;6364;53.590;9.956;2023-07-13T11:30:59;4.88;;;2.03;;
12597;SDS011;6364;53.590;9.956;2023-07-13T11:36:04;6.40;;;2.13;;
12597;SDS011;6364;53.590;9.956;2023-07-13T11:41:45;8.23;;;2.47;;
12597;SDS011;6364;53.590;9.956;2023-07-13T11:44:16;6.38;;;2.38;;
12597;SDS011;6364;53.590;9.956;2023-07-13T11:46:47;7.40;;;2.47;;
12597;SDS011;6364;53.590;9.956;2023-07-13T11:49:25;5.63;;;1.98;;
12597;SDS011;6364;53.590;9.956;2023-07-13T11:51:52;9.73;;;2.70;;
12597;SDS011;6364;53.590;9.956;2023-07-13T11:54:27;5.53;;;2.47;;
12597;SDS011;6364;53.590;9.956;2023-07-13T11:56:55;4.93;;;2.10;;
12597;SDS011;6364;53.590;9.956;2023-07-13T11:59:23;7.82;;;2.28;;
12597;SDS011;6364;53.590;9.956;2023-07-13T12:01:50;6.25;;;2.10;;
12597;SDS011;6364;53.590;9.956;2023-07-13T12:04:21;4.20;;;2.28;;
12597;SDS011;6364;53.590;9.956;2023-07-13T12:06:53;7.95;;;2.70;;
12597;SDS011;6364;53.590;9.956;2023-07-13T12:09:20;5.00;;;2.35;;
12597;SDS011;6364;53.590;9.956;2023-07-13T12:11:50;7.75;;;2.25;;
12597;SDS011;6364;53.590;9.956;2023-07-13T12:14:16;8.55;;;2.70;;
12597;SDS011;6364;53.590;9.956;2023-07-13T12:16:42;12.32;;;3.35;;
12597;SDS011;6364;53.590;9.956;2023-07-13T12:19:16;7.88;;;2.47;;
12597;SDS011;6364;53.590;9.956;2023-07-13T12:21:47;11.98;;;3.50;;
12597;SDS011;6364;53.590;9.956;2023-07-13T12:24:13;8.70;;;2.72;;
12597;SDS011;6364;53.590;9.956;2023-07-13T12:26:40;10.00;;;3.10;;
12597;SDS011;6364;53.590;9.956;2023-07-13T12:29:06;8.73;;;3.08;;
12597;SDS011;6364;53.590;9.956;2023-07-13T12:31:34;8.50;;;3.22;;
12597;SDS011;6364;53.590;9.956;2023-07-13T12:36:37;5.50;;;3.75;;
12597;SDS011;6364;53.590;9.956;2023-07-13T12:39:12;9.77;;;4.03;;
12597;SDS011;6364;53.590;9.956;2023-07-13T12:41:39;7.70;;;4.20;;
12597;SDS011;6364;53.590;9.956;2023-07-13T12:44:09;13.07;;;4.95;;
12597;SDS011;6364;53.590;9.956;2023-07-13T12:46:36;12.55;;;4.93;;
12597;SDS011;6364;53.590;9.956;2023-07-13T12:49:04;10.10;;;5.15;;
12597;SDS011;6364;53.590;9.956;2023-07-13T12:51:32;14.15;;;5.40;;
12597;SDS011;6364;53.590;9.956;2023-07-13T12:53:58;7.57;;;4.90;;
12597;SDS011;6364;53.590;9.956;2023-07-13T12:56:33;14.90;;;4.70;;
12597;SDS011;6364;53.590;9.956;2023-07-13T12:59:00;7.30;;;3.78;;
12597;SDS011;6364;53.590;9.956;2023-07-13T13:01:30;9.10;;;4.28;;
12597;SDS011;6364;53.590;9.956;2023-07-13T13:04:00;9.05;;;3.80;;
12597;SDS011;6364;53.590;9.956;2023-07-13T13:06:27;9.20;;;3.40;;
12597;SDS011;6364;53.590;9.956;2023-07-13T13:08:54;5.78;;;3.17;;
12597;SDS011;6364;53.590;9.956;2023-07-13T13:11:21;6.93;;;2.97;;
12597;SDS011;6364;53.590;9.956;2023-07-13T13:13:48;4.72;;;2.80;;
12597;SDS011;6364;53.590;9.956;2023-07-13T13:18:52;8.50;;;2.53;;
12597;SDS011;6364;53.590;9.956;2023-07-13T13:21:18;5.15;;;2.88;;
12597;SDS011;6364;53.590;9.956;2023-07-13T13:23:46;7.70;;;3.60;;
12597;SDS011;6364;53.590;9.956;2023-07-13T13:26:12;6.20;;;3.42;;
12597;SDS011;6364;53.590;9.956;2023-07-13T13:28:40;4.28;;;2.60;;
12597;SDS011;6364;53.590;9.956;2023-07-13T13:31:07;16.25;;;6.15;;
12597;SDS011;6364;53.590;9.956;2023-07-13T13:33:37;7.05;;;2.50;;
12597;SDS011;6364;53.590;9.956;2023-07-13T13:36:03;6.22;;;2.63;;
12597;SDS011;6364;53.590;9.956;2023-07-13T13:38:28;7.45;;;2.60;;
12597;SDS011;6364;53.590;9.956;2023-07-13T13:40:54;5.38;;;2.47;;
12597;SDS011;6364;53.590;9.956;2023-07-13T13:43:24;4.20;;;2.25;;
12597;SDS011;6364;53.590;9.956;2023-07-13T13:45:54;4.03;;;2.30;;
12597;SDS011;6364;53.590;9.956;2023-07-13T13:48:24;4.03;;;2.47;;
12597;SDS011;6364;53.590;9.956;2023-07-13T13:50:55;10.55;;;2.65;;
12597;SDS011;6364;53.590;9.956;2023-07-13T13:53:21;5.35;;;2.35;;
12597;SDS011;6364;53.590;9.956;2023-07-13T13:55:48;4.18;;;2.60;;
12597;SDS011;6364;53.590;9.956;2023-07-13T13:58:14;5.32;;;2.53;;
12597;SDS011;6364;53.590;9.956;2023-07-13T14:00:39;5.53;;;2.58;;
12597;SDS011;6364;53.590;9.956;2023-07-13T14:03:04;3.00;;;2.08;;
12597;SDS011;6364;53.590;9.956;2023-07-13T14:05:31;4.00;;;2.40;;
12597;SDS011;6364;53.590;9.956;2023-07-13T14:07:57;4.15;;;2.33;;
12597;SDS011;6364;53.590;9.956;2023-07-13T14:10:22;4.90;;;2.67;;
12597;SDS011;6364;53.590;9.956;2023-07-13T14:12:50;3.47;;;2.35;;
12597;SDS011;6364;53.590;9.956;2023-07-13T14:15:21;3.50;;;2.20;;
12597;SDS011;6364;53.590;9.956;2023-07-13T14:17:48;4.38;;;2.25;;
12597;SDS011;6364;53.590;9.956;2023-07-13T14:20:15;5.22;;;2.42;;
12597;SDS011;6364;53.590;9.956;2023-07-13T14:22:41;5.53;;;2.33;;
12597;SDS011;6364;53.590;9.956;2023-07-13T14:25:13;4.30;;;2.08;;
12597;SDS011;6364;53.590;9.956;2023-07-13T14:27:40;5.47;;;2.25;;
12597;SDS011;6364;53.590;9.956;2023-07-13T14:30:23;4.47;;;2.50;;
12597;SDS011;6364;53.590;9.956;2023-07-13T14:32:49;4.72;;;2.30;;
12597;SDS011;6364;53.590;9.956;2023-07-13T14:35:15;5.47;;;2.33;;
12597;SDS011;6364;53.590;9.956;2023-07-13T14:37:41;7.00;;;2.22;;
12597;SDS011;6364;53.590;9.956;2023-07-13T14:42:39;4.63;;;2.13;;
12597;SDS011;6364;53.590;9.956;2023-07-13T14:45:04;8.27;;;2.60;;
12597;SDS011;6364;53.590;9.956;2023-07-13T14:47:30;5.90;;;2.72;;
12597;SDS011;6364;53.590;9.956;2023-07-13T14:49:56;5.20;;;2.55;;
12597;SDS011;6364;53.590;9.956;2023-07-13T14:52:22;5.70;;;2.45;;
12597;SDS011;6364;53.590;9.956;2023-07-13T14:54:48;3.78;;;2.30;;
12597;SDS011;6364;53.590;9.956;2023-07-13T14:57:14;6.80;;;2.90;;
12597;SDS011;6364;53.590;9.956;2023-07-13T14:59:41;4.15;;;2.30;;
12597;SDS011;6364;53.590;9.956;2023-07-13T15:02:53;5.53;;;2.75;;
12597;SDS011;6364;53.590;9.956;2023-07-13T15:04:59;5.53;;;3.00;;
12597;SDS011;6364;53.590;9.956;2023-07-13T15:07:25;5.15;;;3.38;;
12597;SDS011;6364;53.590;9.956;2023-07-13T15:09:50;4.00;;;2.50;;
12597;SDS011;6364;53.590;9.956;2023-07-13T15:12:16;6.10;;;2.95;;
12597;SDS011;6364;53.590;9.956;2023-07-13T15:14:41;5.40;;;2.40;;
12597;SDS011;6364;53.590;9.956;2023-07-13T15:17:18;4.78;;;2.47;;
12597;SDS011;6364;53.590;9.956;2023-07-13T15:19:49;5.72;;;2.65;;
12597;SDS011;6364;53.590;9.956;2023-07-13T15:22:14;6.95;;;2.95;;
12597;SDS011;6364;53.590;9.956;2023-07-13T15:24:40;6.15;;;2.92;;
12597;SDS011;6364;53.590;9.956;2023-07-13T15:27:08;4.32;;;2.50;;
12597;SDS011;6364;53.590;9.956;2023-07-13T15:29:36;5.78;;;2.67;;
12597;SDS011;6364;53.590;9.956;2023-07-13T15:32:02;5.40;;;2.90;;